Latest Weather Observations for Leigh Creek

IDS60801

Issued at 3:31 am CST Sunday 29 May 2016 (issued every 30 minutes, with the page automatically refreshed every 10 minutes)

About weather observations | Map of weather stations | Latest weather observations for SA | Other Formats
Station Details ID: 017110 Name: LEIGH CREEK AIRPORT Lat: -30.60 Lon: 138.42 Height: 258.8 m
Data from the previous 72 hours. | See also: Recent months at Leigh Creek
Date/Time
CST
Temp
°C
App
Temp
°C
Dew
Point
Rel
Hum
%
Delta-T
°C
Wind Press
QNH
hPa
Press
MSL
hPa
Rain
since 9 am
mm
Dir
 
Spd
km/h
Gust
km/h
Spd
kts
Gust
kts
29/03:30am 6.9 5.9 5.8 93 0.5 CALM 0 0 0 0 1018.3 1018.0 0.0
29/03:00am 7.7 6.9 6.3 91 0.6 CALM 0 0 0 0 1018.2 1017.9 0.0
29/02:30am 7.2 6.3 6.1 93 0.5 CALM 0 0 0 0 1018.3 1018.0 0.0
29/02:00am 7.6 6.7 6.2 91 0.6 CALM 0 0 0 0 1018.3 1018.0 0.0
29/01:30am 7.6 6.7 6.2 91 0.6 CALM 0 0 0 0 1018.3 1018.0 0.0
29/01:00am 7.7 6.4 6.0 89 0.8 ESE 2 7 1 4 1018.7 1018.4 0.0
29/12:30am 8.0 5.8 6.3 89 0.8 SE 7 11 4 6 1018.5 1018.2 0.0
29/12:00am 8.1 6.1 6.4 89 0.8 SE 6 9 3 5 1018.5 1018.2 0.0
 
Date/Time
CST
Temp
°C
App
Temp
°C
Dew
Point
Rel
Hum
%
Delta-T
°C
Wind Press
QNH
hPa
Press
MSL
hPa
Rain
since 9 am
mm
Dir
 
Spd
km/h
Gust
km/h
Spd
kts
Gust
kts
28/11:30pm 7.4 4.8 6.2 92 0.6 SE 9 9 5 5 1018.6 1018.3 0.0
28/11:00pm 8.0 5.1 6.5 90 0.7 ESE 11 13 6 7 1018.5 1018.2 0.0
28/10:30pm 8.3 5.5 6.8 90 0.7 SE 11 15 6 8 1018.6 1018.3 0.0
28/10:00pm 8.7 5.9 7.0 89 0.8 ESE 11 13 6 7 1018.9 1018.6 0.0
28/09:30pm 9.4 6.3 7.3 87 1.0 S 13 15 7 8 1019.0 1018.7 0.0
28/09:00pm 10.0 8.1 7.6 85 1.2 S 7 11 4 6 1019.3 1019.0 0.0
28/08:30pm 10.8 9.1 8.2 84 1.3 S 7 9 4 5 1019.3 1019.0 0.0
28/08:00pm 10.6 8.5 8.2 85 1.2 S 9 11 5 6 1019.0 1018.7 0.0
28/07:30pm 11.8 10.2 8.1 78 1.8 S 6 11 3 6 1018.8 1018.5 0.0
28/07:00pm 12.8 12.4 8.1 73 2.4 CALM 0 0 0 0 1018.5 1018.2 0.0
28/06:30pm 13.6 12.5 8.4 71 2.6 S 4 9 2 5 1018.6 1018.3 0.0
28/06:00pm 13.8 11.7 8.2 69 2.8 S 9 15 5 8 1018.3 1018.0 0.0
28/05:30pm 14.0 11.5 8.2 68 2.9 S 11 15 6 8 1017.8 1017.5 0.0
28/05:00pm 14.2 11.3 8.2 67 3.0 S 13 20 7 11 1017.7 1017.4 0.0
28/04:30pm 14.5 11.6 8.0 65 3.3 SSW 13 20 7 11 1017.5 1017.2 0.0
28/04:00pm 14.8 11.1 7.8 63 3.5 SSW 17 24 9 13 1017.2 1016.9 0.0
28/03:30pm 15.0 10.8 7.5 61 3.8 SSW 19 24 10 13 1017.0 1016.7 0.0
28/03:00pm 15.5 11.7 7.5 59 4.0 SSW 17 26 9 14 1017.0 1016.7 0.0
28/02:30pm 15.4 11.1 7.7 60 3.9 SSW 20 26 11 14 1016.9 1016.6 0.0
28/02:00pm 14.6 10.9 7.9 64 3.4 SSW 17 24 9 13 1017.1 1016.8 0.0
28/01:30pm 15.4 11.7 7.9 61 3.8 SSW 17 24 9 13 1017.4 1017.1 0.0
28/01:00pm 14.9 11.2 7.9 63 3.5 SSW 17 22 9 12 1017.7 1017.4 0.0
28/12:30pm 14.1 11.1 7.9 66 3.1 SSW 13 20 7 11 1018.2 1017.9 0.0
28/12:00pm 13.2 9.9 7.9 70 2.6 SSW 15 24 8 13 1018.4 1018.1 0.0
28/11:30am 12.8 8.7 7.9 72 2.4 S 19 26 10 14 1018.3 1018.0 0.0
28/11:00am 12.3 7.3 8.0 75 2.1 SSW 24 30 13 16 1018.2 1017.9 0.0
28/10:30am 12.0 6.1 7.7 75 2.1 SSW 28 35 15 19 1018.2 1017.9 0.0
28/10:00am 12.1 6.3 7.8 75 2.1 SSW 28 35 15 19 1017.7 1017.4 0.0
28/09:30am 11.3 5.9 7.8 79 1.7 SSW 26 35 14 19 1017.7 1017.4 0.0
28/09:00am 10.8 5.6 7.3 79 1.7 SSW 24 30 13 16 1017.8 1017.5 0.0
28/08:30am 10.0 5.5 7.1 82 1.4 SSW 20 24 11 13 1017.8 1017.5 0.0
28/08:00am 9.1 6.0 7.1 87 1.0 S 13 20 7 11 1017.7 1017.4 0.0
28/07:30am 7.9 4.6 6.4 90 0.7 S 13 17 7 9 1017.4 1017.1 0.0
28/07:00am 7.6 4.6 6.1 90 0.7 SSW 11 15 6 8 1017.2 1016.9 0.0
28/06:30am 7.9 5.7 6.0 88 0.9 S 7 11 4 6 1017.2 1016.9 0.0
28/06:00am 8.2 5.5 5.8 85 1.1 S 9 13 5 7 1016.9 1016.6 0.0
28/05:30am 9.3 7.2 6.0 80 1.5 SW 6 11 3 6 1016.8 1016.5 0.0
28/05:00am 9.0 8.1 5.9 81 1.4 CALM 0 0 0 0 1016.4 1016.1 0.0
28/04:30am 9.7 6.0 6.1 78 1.7 SW 15 26 8 14 1015.9 1015.6 0.0
28/04:00am 9.9 5.3 6.3 78 1.7 SW 20 30 11 16 1015.9 1015.6 0.0
28/03:30am 9.8 3.6 6.3 79 1.6 SW 28 39 15 21 1015.9 1015.6 0.0
28/03:00am 10.0 3.5 6.3 78 1.7 SW 30 37 16 20 1015.7 1015.4 0.0
28/02:30am 10.3 3.4 6.3 76 1.9 SW 32 44 17 24 1015.6 1015.3 0.0
28/02:00am 10.4 3.5 6.4 76 1.9 SW 32 43 17 23 1015.5 1015.2 0.0
28/01:30am 10.5 3.5 6.1 74 2.1 WSW 32 43 17 23 1015.7 1015.4 0.0
28/01:00am 10.7 3.8 6.3 74 2.1 SW 32 50 17 27 1015.9 1015.6 0.0
28/12:59am 10.6 3.6 6.2 74 2.1 SW 32 50 17 27 1015.9 1015.6 0.0
28/12:30am 11.0 3.8 6.0 71 2.4 SW 33 43 18 23 1015.7 1015.4 0.0
28/12:00am 11.2 3.6 5.9 70 2.5 SW 35 46 19 25 1015.9 1015.6 0.0
 
Date/Time
CST
Temp
°C
App
Temp
°C
Dew
Point
Rel
Hum
%
Delta-T
°C
Wind Press
QNH
hPa
Press
MSL
hPa
Rain
since 9 am
mm
Dir
 
Spd
km/h
Gust
km/h
Spd
kts
Gust
kts
27/11:30pm 11.3 4.0 5.6 68 2.7 SW 33 46 18 25 1015.7 1015.4 0.0
27/11:00pm 11.5 4.3 5.8 68 2.7 SW 33 50 18 27 1015.6 1015.3 0.0
27/10:37pm 11.5 4.9 6.2 70 2.5 SW 30 48 16 26 1015.8 1015.5 0.0
27/10:30pm 11.6 4.7 6.3 70 2.5 SW 32 48 17 26 1015.8 1015.5 0.0
27/10:00pm 11.9 4.4 6.4 69 2.6 SW 35 44 19 24 1015.6 1015.3 0.0
27/09:35pm 12.1 5.0 6.2 67 2.8 WSW 33 52 18 28 1015.6 1015.3 0.0
27/09:30pm 12.3 4.8 6.1 66 3.0 WSW 35 46 19 25 1015.5 1015.2 0.0
27/09:02pm 12.6 5.1 6.2 65 3.1 SW 35 54 19 29 1015.5 1015.2 0.0
27/09:00pm 12.8 4.9 6.2 64 3.2 SW 37 54 20 29 1015.4 1015.1 0.0
27/08:56pm 12.8 5.7 6.2 64 3.2 SW 33 52 18 28 1015.4 1015.1 0.0
27/08:30pm 12.9 5.4 6.3 64 3.2 SW 35 50 19 27 1015.3 1015.0 0.0
27/08:15pm 12.9 5.0 6.0 63 3.3 SW 37 56 20 30 1015.3 1015.0 0.0
27/08:00pm 13.1 4.8 6.2 63 3.3 SW 39 54 21 29 1015.4 1015.1 0.0
27/07:30pm 13.5 6.4 6.4 62 3.4 SW 33 50 18 27 1015.4 1015.1 0.0
27/07:19pm 13.4 7.4 7.2 66 3.1 SW 28 46 15 25 1015.5 1015.2 0.0
27/07:00pm 13.5 6.9 7.9 69 2.8 SW 32 41 17 22 1015.5 1015.2 0.0
27/06:30pm 14.0 7.7 7.3 64 3.3 SW 30 41 16 22 1015.2 1014.9 0.0
27/06:09pm 14.0 7.9 6.4 60 3.7 SW 28 46 15 25 1015.2 1014.9 0.0
27/06:00pm 14.1 7.2 6.5 60 3.7 WSW 32 43 17 23 1015.1 1014.8 0.0
27/05:31pm 15.8 9.6 6.0 52 4.8 WSW 28 61 15 33 1014.3 1014.0 0.0
27/05:30pm 16.0 10.0 7.0 55 4.5 WSW 28 44 15 24 1014.3 1014.0 0.0
27/05:10pm 16.4 9.3 5.7 49 5.2 WSW 32 52 17 28 1013.9 1013.6 0.0
27/05:00pm 16.3 9.6 5.6 49 5.2 W 30 43 16 23 1013.8 1013.5 0.0
27/04:34pm 16.5 9.8 5.5 48 5.4 WSW 30 48 16 26 1013.5 1013.2 0.0
27/04:30pm 16.5 9.8 5.8 49 5.2 WSW 30 44 16 24 1013.5 1013.2 0.0
27/04:00pm 17.0 10.8 6.2 49 5.4 WSW 28 41 15 22 1013.5 1013.2 0.0
27/03:33pm 16.8 10.6 6.0 49 5.3 W 28 48 15 26 1013.2 1012.8 0.0
27/03:30pm 16.9 11.1 6.4 50 5.2 W 26 35 14 19 1013.2 1012.8 0.0
27/03:00pm 16.9 9.7 4.9 45 5.8 WSW 32 44 17 24 1013.4 1013.1 0.0
27/02:30pm 17.0 10.7 5.6 47 5.6 WSW 28 39 15 21 1013.6 1013.3 0.0
27/02:00pm 16.3 8.7 4.0 44 5.8 WSW 33 50 18 27 1013.6 1013.3 0.0
27/01:59pm 16.5 9.0 3.6 42 6.0 WSW 32 50 17 27 1013.7 1013.4 0.0
27/01:30pm 16.2 8.9 7.2 55 4.5 W 35 46 19 25 1013.9 1013.6 0.0
27/01:00pm 16.1 10.5 8.8 62 3.8 W 28 39 15 21 1014.2 1013.9 0.0
27/12:30pm 16.5 11.5 9.7 64 3.6 WSW 26 35 14 19 1014.5 1014.2 0.0
27/12:16pm 15.8 10.5 9.9 68 3.1 WSW 28 46 15 25 1014.7 1014.4 0.0
27/12:00pm 15.1 9.8 9.9 71 2.7 WSW 28 37 15 20 1015.1 1014.8 0.0
27/11:30am 15.5 11.0 10.1 70 2.9 W 24 32 13 17 1015.3 1015.0 0.0
27/11:00am 14.9 10.4 9.9 72 2.6 W 24 32 13 17 1015.6 1015.3 0.0
27/10:30am 14.3 9.4 10.1 76 2.2 W 26 33 14 18 1015.9 1015.6 0.0
27/10:00am 13.9 8.5 9.5 75 2.3 W 28 35 15 19 1015.9 1015.6 0.0
27/09:30am 13.7 9.0 9.2 74 2.3 W 24 35 13 19 1015.8 1015.5 0.0
27/09:00am 13.0 9.6 9.1 77 2.0 WNW 17 24 9 13 1016.2 1015.9 0.2
27/08:30am 11.8 9.2 9.4 85 1.2 WNW 13 19 7 10 1016.1 1015.8 0.2
27/08:00am 9.9 9.6 8.7 92 0.6 CALM 0 0 0 0 1015.9 1015.6 0.2
27/07:30am 9.0 8.1 7.8 92 0.6 N 2 7 1 4 1015.6 1015.3 0.2
27/07:00am 9.8 8.8 8.7 93 0.5 N 4 11 2 6 1015.3 1015.0 0.2
27/06:30am 8.9 7.0 7.7 92 0.6 NNW 7 11 4 6 1015.2 1014.9 0.2
27/06:00am 10.7 9.0 8.3 85 1.2 S 7 9 4 5 1014.8 1014.5 0.2
27/05:30am 10.7 9.0 8.3 85 1.2 S 7 9 4 5 1014.7 1014.4 0.2
27/05:00am 10.9 8.6 9.0 88 1.0 S 11 13 6 7 1014.5 1014.2 0.2
27/04:30am 9.9 7.2 9.0 94 0.4 SSW 13 13 7 7 1014.5 1014.2 0.2
27/04:00am 10.1 8.7 9.5 96 0.3 SSW 7 9 4 5 1014.3 1014.0 0.2
27/03:30am 10.0 9.5 9.4 96 0.3 SSW 2 7 1 4 1014.6 1014.3 0.2
27/03:00am 10.3 10.2 9.5 95 0.4 CALM 0 0 0 0 1014.9 1014.6 0.2
27/02:30am 10.8 10.7 9.6 92 0.6 CALM 0 0 0 0 1014.7 1014.4 0.2
27/02:00am 10.7 10.7 9.8 94 0.5 CALM 0 0 0 0 1014.7 1014.4 0.2
27/01:30am 11.1 11.1 9.9 92 0.6 CALM 0 0 0 0 1014.6 1014.3 0.2
27/01:00am 11.7 11.8 10.1 90 0.8 CALM 0 0 0 0 1015.0 1014.7 0.2
27/12:30am 11.8 11.9 10.2 90 0.8 CALM 0 0 0 0 1015.0 1014.7 0.2
27/12:00am 12.1 12.2 10.0 87 1.1 CALM 0 0 0 0 1014.8 1014.5 0.2
 
Date/Time
CST
Temp
°C
App
Temp
°C
Dew
Point
Rel
Hum
%
Delta-T
°C
Wind Press
QNH
hPa
Press
MSL
hPa
Rain
since 9 am
mm
Dir
 
Spd
km/h
Gust
km/h
Spd
kts
Gust
kts
26/11:30pm 12.2 12.3 10.1 87 1.1 CALM 0 0 0 0 1014.7 1014.4 0.2
26/11:00pm 12.3 11.1 10.2 87 1.1 SSW 7 7 4 4 1014.5 1014.2 0.2
26/10:30pm 12.2 10.9 10.1 87 1.1 SSW 7 9 4 5 1014.6 1014.3 0.2
26/10:00pm 12.5 10.8 9.7 83 1.4 SSW 9 13 5 7 1014.7 1014.4 0.2
26/09:30pm 12.8 10.7 9.8 82 1.6 SSW 11 13 6 7 1014.8 1014.5 0.2
26/09:00pm 12.9 10.8 9.7 81 1.7 SSW 11 13 6 7 1014.6 1014.3 0.2
26/08:30pm 12.7 12.2 9.5 81 1.6 SSW 2 7 1 4 1014.6 1014.3 0.2
26/08:00pm 13.3 11.4 9.2 76 2.1 SSW 9 11 5 6 1014.2 1013.9 0.2
26/07:30pm 13.4 11.3 9.8 79 1.9 SSW 11 15 6 8 1013.5 1013.2 0.2
26/07:00pm 13.2 11.1 9.8 80 1.8 SSW 11 13 6 7 1013.3 1013.0 0.2
26/06:30pm 14.0 11.5 9.8 76 2.2 S 13 15 7 8 1012.7 1012.3 0.2
26/06:00pm 14.2 11.9 10.4 78 2.0 S 13 15 7 8 1012.7 1012.3 0.2
26/05:30pm 14.9 12.1 9.9 72 2.6 S 15 19 8 10 1012.0 1011.7 0.2
26/05:00pm 15.4 12.1 9.7 69 3.0 SSW 17 20 9 11 1011.8 1011.5 0.2
26/04:30pm 15.7 12.4 9.4 66 3.3 SSW 17 24 9 13 1012.2 1011.9 0.2
26/04:00pm 16.1 12.5 10.0 67 3.2 SSW 19 26 10 14 1011.6 1011.3 0.2
26/03:30pm 16.6 12.2 9.1 61 3.9 SSW 22 28 12 15 1011.3 1011.0 0.2
26/03:00pm 17.1 12.2 9.8 62 3.9 S 26 35 14 19 1011.0 1010.7 0.2
26/02:30pm 16.9 12.0 9.8 63 3.8 SSW 26 32 14 17 1011.1 1010.8 0.2
26/02:00pm 17.0 12.7 10.6 66 3.5 SW 24 33 13 18 1010.9 1010.6 0.2
26/01:30pm 17.3 14.1 12.0 71 2.9 SSW 20 30 11 16 1011.3 1011.0 0.0
26/01:00pm 16.3 12.3 10.6 69 3.1 SSW 22 32 12 17 1011.3 1011.0 0.0
26/12:30pm 15.8 12.1 11.6 76 2.3 SSW 22 28 12 15 1011.4 1011.1 0.0
26/12:00pm 16.3 12.7 11.9 75 2.4 SSW 22 32 12 17 1011.3 1011.0 0.0
26/11:30am 15.2 11.6 12.0 81 1.8 SSW 22 28 12 15 1011.7 1011.4 0.0
26/11:00am 15.1 12.1 12.4 84 1.5 SSW 20 26 11 14 1012.1 1011.8 0.0
26/10:30am 14.8 11.8 12.7 87 1.2 SSW 20 24 11 13 1012.0 1011.7 0.0
26/10:00am 14.0 11.0 12.4 90 0.9 SSW 20 26 11 14 1011.6 1011.3 0.0
26/09:30am 13.8 10.5 12.7 93 0.6 SSW 22 28 12 15 1011.7 1011.4 0.0
26/09:00am 13.6 9.9 12.8 95 0.4 SSW 24 33 13 18 1011.7 1011.4 20.4
26/08:30am 13.6 10.8 13.1 97 0.3 SSW 20 30 11 16 1011.1 1010.8 20.4
26/08:00am 13.7 9.5 13.4 98 0.2 SW 28 37 15 20 1010.7 1010.4 20.4
26/07:30am 14.1 11.3 13.1 94 0.6 SW 20 30 11 16 1010.4 1010.1 20.4
26/07:00am 14.3 12.2 13.5 95 0.5 SW 17 28 9 15 1010.5 1010.2 20.4
26/06:30am 14.3 11.5 13.3 94 0.6 WSW 20 30 11 16 1010.7 1010.4 20.4
26/06:00am 13.9 12.5 13.4 97 0.3 SSW 13 17 7 9 1010.0 1009.7 20.4
26/05:30am 14.3 14.9 13.0 92 0.7 W 2 6 1 3 1010.2 1009.9 20.4
26/05:00am 15.1 13.4 13.5 90 0.9 WSW 15 20 8 11 1010.1 1009.8 20.4
26/04:30am 15.0 12.9 13.5 91 0.8 WSW 17 24 9 13 1010.1 1009.8 20.4
26/04:00am 15.3 12.8 14.2 93 0.6 W 20 28 11 15 1010.1 1009.8 20.4

Other Formats:

Comma delimited format used in spreadsheet applications
http://www.bom.gov.au/fwo/IDS60801/IDS60801.94674.axf

JavaScript Object Notation format (JSON) in row-major order
http://www.bom.gov.au/fwo/IDS60801/IDS60801.94674.json